Time;durP1;ratioP1;P1;durP2;ratioP2;P2;SDS_P1;SDS_P2;PMS_P1;PMS_P2;Temp;Humidity;BMP_temperature;BMP_pressure;BME280_temperature;BME280_humidity;BME280_pressure;Samples;Min_cycle;Max_cycle;Signal;HPM_P1;HPM_P2
2022/05/22 00:00:16;;;;;;;12.95;5.40;;;10.10;99.90;;;;;;4958147;28;93225;-34
2022/05/22 00:02:42;;;;;;;10.45;5.28;;;10.10;99.90;;;;;;4956824;28;93311;-38
2022/05/22 00:05:12;;;;;;;13.90;5.63;;;10.10;99.90;;;;;;4957157;28;94754;-38
2022/05/22 00:07:38;;;;;;;12.30;5.03;;;10.00;99.90;;;;;;4956411;28;95181;-38
2022/05/22 00:10:04;;;;;;;8.13;5.07;;;10.00;99.90;;;;;;4958474;28;94791;-35
2022/05/22 00:12:30;;;;;;;15.95;5.65;;;10.00;99.90;;;;;;4957012;28;93733;-35
2022/05/22 00:14:56;;;;;;;8.82;5.13;;;10.00;99.90;;;;;;4957102;28;94599;-38
2022/05/22 00:17:22;;;;;;;12.55;5.30;;;10.00;99.90;;;;;;4957507;28;95209;-39
2022/05/22 00:19:47;;;;;;;10.13;5.30;;;9.90;99.90;;;;;;4957494;28;94935;-34
2022/05/22 00:22:13;;;;;;;7.63;5.18;;;9.90;99.90;;;;;;4957576;28;93589;-38
2022/05/22 00:24:39;;;;;;;8.38;5.85;;;9.90;99.90;;;;;;4956243;28;95584;-35
2022/05/22 00:27:06;;;;;;;9.05;5.13;;;9.90;99.90;;;;;;4957028;28;95324;-39
2022/05/22 00:29:32;;;;;;;8.93;4.50;;;9.80;99.90;;;;;;4957909;28;94720;-33
2022/05/22 00:31:58;;;;;;;10.15;4.63;;;9.80;99.90;;;;;;4955557;28;92378;-38
2022/05/22 00:34:24;;;;;;;8.90;5.55;;;9.70;99.90;;;;;;4957442;28;94905;-34
2022/05/22 00:36:50;;;;;;;5.70;4.75;;;9.70;99.90;;;;;;4956293;28;94743;-35
2022/05/22 00:39:16;;;;;;;6.50;5.25;;;9.70;99.90;;;;;;4956790;28;93687;-36
2022/05/22 00:41:48;;;;;;;8.85;5.88;;;9.70;99.90;;;;;;4957360;28;93107;-36
2022/05/22 00:44:13;;;;;;;8.15;5.85;;;9.70;99.90;;;;;;4957426;28;94859;-39
2022/05/22 00:46:39;;;;;;;12.75;6.32;;;9.70;99.90;;;;;;4956707;28;94504;-37
2022/05/22 00:49:21;;;;;;;12.40;6.05;;;9.70;99.90;;;;;;5011127;22;94586;-38
2022/05/22 00:52:04;;;;;;;8.27;5.82;;;9.70;99.90;;;;;;4975892;28;92885;-34
2022/05/22 00:54:36;;;;;;;9.05;6.07;;;9.70;99.90;;;;;;4976670;28;94814;-36
2022/05/22 00:57:02;;;;;;;10.60;6.20;;;9.70;99.90;;;;;;4976160;28;94016;-36
2022/05/22 00:59:34;;;;;;;11.98;6.68;;;9.60;99.90;;;;;;4977560;28;94638;-33
2022/05/22 01:02:02;;;;;;;7.93;5.50;;;9.60;99.90;;;;;;4976716;28;93232;-35
2022/05/22 01:04:30;;;;;;;8.15;5.80;;;9.60;99.90;;;;;;4976888;28;94578;-33
2022/05/22 01:06:56;;;;;;;19.08;7.82;;;9.60;99.90;;;;;;4976249;28;94788;-33
2022/05/22 01:09:22;;;;;;;13.07;6.68;;;9.50;99.90;;;;;;4977437;28;92087;-35
2022/05/22 01:11:52;;;;;;;11.82;7.47;;;9.50;99.90;;;;;;4976570;28;92088;-36
2022/05/22 01:14:21;;;;;;;10.27;6.93;;;9.50;99.90;;;;;;4976122;28;95904;-37
2022/05/22 01:16:48;;;;;;;9.38;6.78;;;9.50;99.90;;;;;;4976672;28;95172;-35
2022/05/22 01:19:17;;;;;;;9.57;6.35;;;9.40;99.90;;;;;;4976514;28;94662;-34
2022/05/22 01:21:54;;;;;;;15.95;6.38;;;9.40;99.90;;;;;;4976446;28;92068;-35
2022/05/22 01:24:20;;;;;;;7.57;6.45;;;9.40;99.90;;;;;;4975299;28;94911;-33
2022/05/22 01:26:47;;;;;;;5.93;5.30;;;9.40;99.90;;;;;;4956619;28;95198;-36
2022/05/22 01:29:12;;;;;;;11.48;6.13;;;9.40;99.90;;;;;;4957192;28;93349;-35
2022/05/22 01:31:38;;;;;;;7.70;5.28;;;9.40;99.90;;;;;;4956081;28;91429;-35
2022/05/22 01:34:04;;;;;;;6.70;5.38;;;9.40;99.90;;;;;;4956960;28;93962;-36
2022/05/22 01:36:30;;;;;;;9.13;6.38;;;9.40;99.90;;;;;;4955686;28;93481;-36
2022/05/22 01:38:55;;;;;;;15.07;7.53;;;9.40;99.90;;;;;;4956556;28;93598;-34
2022/05/22 01:41:21;;;;;;;15.95;6.50;;;9.40;99.90;;;;;;4956709;28;94490;-33
2022/05/22 01:43:46;;;;;;;8.93;5.72;;;9.30;99.90;;;;;;4958215;28;94869;-35
2022/05/22 01:46:12;;;;;;;10.35;6.88;;;9.30;99.90;;;;;;4960029;28;94471;-33
2022/05/22 01:48:38;;;;;;;12.20;7.82;;;9.30;99.90;;;;;;4959178;28;94724;-35
2022/05/22 01:51:05;;;;;;;11.75;6.68;;;9.40;99.90;;;;;;4960288;28;94345;-35
2022/05/22 01:53:31;;;;;;;11.98;6.75;;;9.40;99.90;;;;;;4959855;28;94660;-35
2022/05/22 01:55:56;;;;;;;13.48;6.68;;;9.40;99.90;;;;;;4959415;28;94635;-38
2022/05/22 01:58:22;;;;;;;9.27;6.65;;;9.40;99.90;;;;;;4960424;28;94566;-34
2022/05/22 02:00:48;;;;;;;8.27;6.75;;;9.40;99.90;;;;;;4959302;28;93513;-33
2022/05/22 02:03:13;;;;;;;13.10;7.78;;;9.40;99.90;;;;;;4959548;28;96178;-36
2022/05/22 02:05:39;;;;;;;16.52;7.68;;;9.40;99.90;;;;;;4959026;28;96734;-35
2022/05/22 02:08:22;;;;;;;10.00;7.38;;;9.30;99.90;;;;;;4959047;28;93936;-34
2022/05/22 02:11:06;;;;;;;11.60;7.63;;;9.30;99.90;;;;;;4958776;28;93392;-37
2022/05/22 02:13:43;;;;;;;15.07;7.25;;;9.30;99.90;;;;;;4959289;28;94516;-34
2022/05/22 02:16:09;;;;;;;15.60;7.20;;;9.20;99.90;;;;;;4959712;28;94621;-35
2022/05/22 02:18:35;;;;;;;12.25;6.45;;;9.20;99.90;;;;;;4959115;28;92272;-38
2022/05/22 02:21:01;;;;;;;9.93;6.93;;;9.10;99.90;;;;;;4959925;28;93834;-37
2022/05/22 02:23:27;;;;;;;9.05;6.68;;;9.10;99.90;;;;;;4959487;28;96684;-36
2022/05/22 02:25:54;;;;;;;12.18;7.43;;;9.10;99.90;;;;;;4958433;28;94407;-33
2022/05/22 02:28:21;;;;;;;10.07;7.28;;;9.10;99.90;;;;;;4959412;28;95138;-38
2022/05/22 02:30:54;;;;;;;11.48;6.57;;;9.10;99.90;;;;;;4959373;28;92742;-37
2022/05/22 02:33:20;;;;;;;8.50;6.88;;;9.00;99.90;;;;;;4958794;28;93809;-34
2022/05/22 02:35:47;;;;;;;14.45;7.47;;;9.10;99.90;;;;;;4959076;28;94731;-34
2022/05/22 02:38:13;;;;;;;11.25;7.78;;;9.00;99.90;;;;;;4959136;28;92342;-34
2022/05/22 02:40:39;;;;;;;10.05;7.30;;;9.00;99.90;;;;;;4959238;28;93177;-35
2022/05/22 02:43:06;;;;;;;10.82;7.10;;;9.00;99.90;;;;;;4958641;28;93816;-36
2022/05/22 02:45:34;;;;;;;16.48;7.65;;;9.00;99.90;;;;;;4958705;28;93661;-37
2022/05/22 02:47:59;;;;;;;12.90;8.77;;;9.00;99.90;;;;;;4958407;28;93854;-37
2022/05/22 02:50:27;;;;;;;13.57;8.70;;;9.00;99.90;;;;;;4959145;28;92106;-35
2022/05/22 02:52:53;;;;;;;13.30;8.43;;;9.10;99.90;;;;;;4958241;28;95837;-36
2022/05/22 02:55:19;;;;;;;14.80;8.18;;;9.00;99.90;;;;;;4957353;28;95480;-36
2022/05/22 02:57:45;;;;;;;8.63;6.75;;;9.00;99.90;;;;;;4958826;28;93214;-36
2022/05/22 03:00:16;;;;;;;13.88;7.72;;;9.00;99.90;;;;;;4958758;28;93973;-34
2022/05/22 03:02:42;;;;;;;18.60;8.90;;;9.00;99.90;;;;;;4958891;28;94576;-37
2022/05/22 03:05:09;;;;;;;15.57;9.32;;;9.00;99.90;;;;;;4958676;28;94337;-36
2022/05/22 03:07:36;;;;;;;11.25;7.80;;;8.90;99.90;;;;;;4958522;28;93208;-38
2022/05/22 03:10:03;;;;;;;16.33;8.53;;;8.90;99.90;;;;;;4959004;28;92995;-34
2022/05/22 03:12:29;;;;;;;15.90;9.07;;;9.00;99.90;;;;;;4957643;28;95055;-38
2022/05/22 03:14:57;;;;;;;11.63;8.27;;;8.90;99.90;;;;;;4959103;28;94795;-35
2022/05/22 03:17:24;;;;;;;14.40;7.75;;;9.00;99.90;;;;;;4958639;28;94244;-36
2022/05/22 03:19:50;;;;;;;16.35;9.05;;;9.00;99.90;;;;;;4958204;28;94788;-37
2022/05/22 03:22:16;;;;;;;10.43;9.40;;;9.00;99.90;;;;;;4957965;28;93641;-37
2022/05/22 03:24:42;;;;;;;15.43;9.05;;;9.00;99.90;;;;;;4958304;28;95375;-34
2022/05/22 03:27:11;;;;;;;10.57;9.38;;;8.90;99.90;;;;;;4956679;28;92237;-34
2022/05/22 03:29:40;;;;;;;10.07;7.80;;;8.90;99.90;;;;;;4958062;28;93054;-33
2022/05/22 03:32:07;;;;;;;12.75;8.93;;;8.90;99.90;;;;;;4957624;28;94978;-33
2022/05/22 03:34:33;;;;;;;12.23;9.00;;;8.90;99.90;;;;;;4958558;28;94405;-38
2022/05/22 03:36:59;;;;;;;13.63;9.60;;;8.90;99.90;;;;;;4958183;28;93595;-34
2022/05/22 03:39:25;;;;;;;18.70;9.40;;;8.90;99.90;;;;;;4958519;28;94933;-34
2022/05/22 03:41:51;;;;;;;10.90;8.45;;;8.90;99.90;;;;;;4957772;28;95270;-34
2022/05/22 03:44:16;;;;;;;12.80;8.48;;;8.90;99.90;;;;;;4957534;28;95620;-35
2022/05/22 03:46:42;;;;;;;12.07;8.73;;;8.90;99.90;;;;;;4957704;28;93035;-35
2022/05/22 03:49:08;;;;;;;11.73;8.57;;;8.90;99.90;;;;;;4957782;28;92728;-34
2022/05/22 03:51:34;;;;;;;14.63;8.70;;;8.90;99.90;;;;;;4958142;28;95036;-35
2022/05/22 03:54:00;;;;;;;15.15;8.93;;;8.90;99.90;;;;;;4957795;28;94625;-34
2022/05/22 03:56:26;;;;;;;14.38;8.75;;;8.90;99.90;;;;;;4957409;28;94416;-38
2022/05/22 03:58:52;;;;;;;17.35;9.38;;;8.90;99.90;;;;;;4958179;28;93871;-33
2022/05/22 04:01:17;;;;;;;17.95;9.07;;;8.90;99.90;;;;;;4957779;28;95541;-34
2022/05/22 04:03:43;;;;;;;12.95;7.95;;;9.00;99.90;;;;;;4957573;28;94519;-35
2022/05/22 04:06:10;;;;;;;12.15;9.15;;;9.00;99.90;;;;;;4957331;28;94017;-34
2022/05/22 04:08:37;;;;;;;9.80;8.05;;;9.00;99.90;;;;;;4957141;28;92656;-33
2022/05/22 04:11:15;;;;;;;17.63;9.82;;;9.10;99.90;;;;;;4957225;28;94683;-34
2022/05/22 04:13:41;;;;;;;11.98;9.32;;;9.20;99.90;;;;;;4957663;28;94702;-39
2022/05/22 04:16:06;;;;;;;12.70;8.50;;;9.20;99.90;;;;;;4957607;28;94649;-36
2022/05/22 04:18:33;;;;;;;14.07;8.85;;;9.30;99.90;;;;;;4956836;28;93000;-34
2022/05/22 04:20:59;;;;;;;19.02;8.98;;;9.30;99.90;;;;;;4957695;28;95265;-33
2022/05/22 04:26:10;;;;;;;10.82;9.20;;;9.80;99.90;;;;;;4958219;28;92172;-35
2022/05/22 04:28:36;;;;;;;16.40;9.95;;;9.90;99.90;;;;;;4957257;28;93353;-34
2022/05/22 04:31:03;;;;;;;14.18;7.78;;;10.00;99.90;;;;;;4956325;28;96661;-38
2022/05/22 04:33:30;;;;;;;16.75;10.43;;;10.00;99.90;;;;;;4956716;28;95334;-35
2022/05/22 04:35:56;;;;;;;22.75;9.38;;;10.10;99.90;;;;;;4956902;28;93853;-37
2022/05/22 04:38:21;;;;;;;13.68;9.63;;;10.20;99.90;;;;;;4957162;28;92126;-36
2022/05/22 04:40:55;;;;;;;14.43;9.30;;;10.30;99.90;;;;;;4957238;28;95401;-33
2022/05/22 04:43:21;;;;;;;12.07;7.25;;;10.50;99.90;;;;;;4956736;28;95354;-37
2022/05/22 04:45:47;;;;;;;15.85;9.52;;;10.70;99.90;;;;;;4957305;28;94075;-38
2022/05/22 04:48:12;;;;;;;12.85;9.15;;;10.70;99.90;;;;;;4957530;28;94066;-35
2022/05/22 04:50:38;;;;;;;19.20;9.65;;;10.80;99.90;;;;;;4956253;28;93192;-37
2022/05/22 04:53:03;;;;;;;14.10;9.43;;;10.80;99.90;;;;;;4956825;28;94139;-35
2022/05/22 04:55:29;;;;;;;21.23;9.75;;;10.90;99.90;;;;;;4956824;28;95626;-35
2022/05/22 04:57:55;;;;;;;17.65;9.40;;;10.90;99.90;;;;;;4956694;28;94053;-35
2022/05/22 05:00:20;;;;;;;10.68;8.55;;;11.00;99.90;;;;;;4956897;28;94379;-36
2022/05/22 05:02:47;;;;;;;11.80;9.45;;;11.10;99.90;;;;;;4956482;28;94621;-38
2022/05/22 05:05:13;;;;;;;15.95;9.38;;;11.20;99.90;;;;;;4957153;28;93517;-34
2022/05/22 05:07:41;;;;;;;16.33;9.38;;;11.30;99.90;;;;;;4956505;28;93086;-35
2022/05/22 05:10:08;;;;;;;9.63;8.47;;;11.40;99.90;;;;;;4956670;28;94835;-36
2022/05/22 05:12:44;;;;;;;12.20;8.75;;;11.50;99.90;;;;;;4957101;28;94272;-39
2022/05/22 05:15:12;;;;;;;21.70;9.82;;;11.60;99.90;;;;;;4957020;28;92191;-37
2022/05/22 05:17:40;;;;;;;14.85;7.40;;;11.80;99.90;;;;;;4955977;28;95024;-36
2022/05/22 05:20:06;;;;;;;17.27;8.70;;;12.00;99.90;;;;;;4959094;28;95745;-37
2022/05/22 05:22:32;;;;;;;11.13;7.47;;;12.20;99.90;;;;;;4960299;28;95541;-35
2022/05/22 05:24:59;;;;;;;10.55;7.65;;;12.20;99.90;;;;;;4959267;28;93888;-36
2022/05/22 05:27:24;;;;;;;16.38;7.80;;;12.50;99.90;;;;;;4960505;28;93503;-34
2022/05/22 05:29:50;;;;;;;10.38;7.30;;;12.50;99.90;;;;;;4959818;28;94509;-37
2022/05/22 05:32:19;;;;;;;14.82;7.15;;;12.80;99.90;;;;;;4959414;28;94556;-35
2022/05/22 05:34:45;;;;;;;11.30;7.88;;;12.90;99.90;;;;;;4959709;28;93851;-35
2022/05/22 05:37:10;;;;;;;9.75;6.53;;;13.20;99.90;;;;;;4960559;28;92470;-37
2022/05/22 05:39:36;;;;;;;14.00;7.38;;;13.40;99.90;;;;;;4959118;28;94917;-37
2022/05/22 05:42:01;;;;;;;8.65;7.00;;;13.60;99.90;;;;;;4960296;28;94489;-35
2022/05/22 05:44:27;;;;;;;16.85;7.85;;;13.60;99.90;;;;;;4960027;28;94510;-37
2022/05/22 05:46:52;;;;;;;13.07;6.90;;;13.80;99.90;;;;;;4959897;28;93268;-34
2022/05/22 05:49:18;;;;;;;14.27;6.38;;;13.90;99.90;;;;;;4959584;28;96369;-36
2022/05/22 05:51:44;;;;;;;10.65;6.97;;;14.00;99.90;;;;;;4958990;28;94559;-36
2022/05/22 05:54:10;;;;;;;13.68;6.90;;;14.10;99.90;;;;;;4960256;28;92742;-36
2022/05/22 05:56:40;;;;;;;19.77;7.30;;;14.10;99.90;;;;;;4959413;28;94816;-36
2022/05/22 05:59:06;;;;;;;8.10;6.60;;;14.40;99.90;;;;;;4958729;28;95728;-34
2022/05/22 06:01:33;;;;;;;12.07;7.25;;;14.50;99.90;;;;;;4960073;28;94438;-35
2022/05/22 06:04:00;;;;;;;7.80;6.28;;;14.80;99.90;;;;;;4960104;28;92602;-34
2022/05/22 06:06:25;;;;;;;9.63;7.63;;;14.60;99.90;;;;;;4959237;28;92665;-35
2022/05/22 06:08:52;;;;;;;15.80;7.15;;;14.90;99.90;;;;;;4958553;28;95679;-35
2022/05/22 06:11:18;;;;;;;10.93;6.15;;;15.10;99.90;;;;;;4960140;28;95198;-36
2022/05/22 06:13:44;;;;;;;14.73;7.60;;;14.80;99.90;;;;;;4959238;28;93450;-36
2022/05/22 06:16:10;;;;;;;15.18;6.97;;;15.20;99.90;;;;;;4959454;28;94304;-39
2022/05/22 06:18:36;;;;;;;12.45;5.97;;;15.50;99.90;;;;;;4958504;28;94640;-36
2022/05/22 06:21:13;;;;;;;11.68;6.35;;;15.70;99.90;;;;;;4958580;28;94411;-38
2022/05/22 06:23:38;;;;;;;8.32;5.13;;;15.80;99.90;;;;;;4958087;28;92382;-35
2022/05/22 06:26:06;;;;;;;11.07;5.90;;;16.20;99.90;;;;;;4959771;28;91830;-34
2022/05/22 06:28:32;;;;;;;18.27;6.50;;;16.30;99.90;;;;;;4959030;28;94628;-36
2022/05/22 06:30:57;;;;;;;13.38;6.65;;;16.60;99.90;;;;;;4957428;28;98498;-37
2022/05/22 06:33:23;;;;;;;12.25;7.03;;;16.10;99.90;;;;;;4958457;28;95428;-36
2022/05/22 06:35:49;;;;;;;14.55;7.35;;;16.20;99.90;;;;;;4958995;28;93355;-35
2022/05/22 06:41:06;;;;;;;11.40;6.50;;;16.60;99.90;;;;;;4959295;28;94865;-34
2022/05/22 06:43:31;;;;;;;8.60;6.43;;;16.60;99.90;;;;;;4959550;28;94316;-38
2022/05/22 06:45:57;;;;;;;10.85;6.53;;;17.10;99.90;;;;;;4958389;28;94207;-38
2022/05/22 06:48:23;;;;;;;13.38;6.53;;;17.20;99.90;;;;;;4958723;28;95016;-33
2022/05/22 06:50:48;;;;;;;12.85;6.50;;;17.20;99.90;;;;;;4959068;28;94674;-34
2022/05/22 06:53:14;;;;;;;10.45;6.50;;;17.10;99.90;;;;;;4959147;28;92779;-37
2022/05/22 06:55:40;;;;;;;10.68;5.95;;;17.00;99.90;;;;;;4958419;28;94689;-34
2022/05/22 06:58:06;;;;;;;11.25;5.65;;;17.10;99.90;;;;;;4957992;28;95618;-36
2022/05/22 07:00:32;;;;;;;11.02;6.22;;;17.20;99.90;;;;;;4959073;28;94463;-37
2022/05/22 07:02:57;;;;;;;12.48;5.75;;;17.60;99.90;;;;;;4959118;28;92625;-35
2022/05/22 07:05:23;;;;;;;8.63;5.15;;;17.60;99.90;;;;;;4959265;28;94859;-36
2022/05/22 07:07:49;;;;;;;6.93;5.25;;;17.70;99.90;;;;;;4957586;28;94774;-34
2022/05/22 07:10:15;;;;;;;13.20;6.68;;;17.70;99.90;;;;;;4958737;28;92900;-36
2022/05/22 07:12:41;;;;;;;14.40;5.97;;;17.50;99.90;;;;;;4958469;28;94674;-34
2022/05/22 07:15:07;;;;;;;12.77;6.63;;;17.80;99.90;;;;;;4958981;28;92318;-35
2022/05/22 07:17:33;;;;;;;13.65;5.75;;;18.20;99.90;;;;;;4968969;28;95522;-36
2022/05/22 07:19:59;;;;;;;13.52;5.63;;;18.00;99.90;;;;;;4975646;28;94848;-37
2022/05/22 07:22:25;;;;;;;10.07;6.25;;;18.10;99.90;;;;;;4976246;28;94361;-34
2022/05/22 07:24:52;;;;;;;8.77;5.43;;;18.60;99.90;;;;;;4976172;28;94439;-36
2022/05/22 07:27:18;;;;;;;14.82;5.85;;;18.10;99.90;;;;;;4975617;28;93274;-37
2022/05/22 07:29:45;;;;;;;10.18;5.75;;;18.40;99.90;;;;;;4975344;28;94289;-34
2022/05/22 07:32:11;;;;;;;10.80;5.78;;;18.70;99.90;;;;;;4975746;28;94293;-38
2022/05/22 07:34:38;;;;;;;9.82;5.40;;;18.50;99.90;;;;;;4976121;28;93435;-36
2022/05/22 07:37:06;;;;;;;8.03;4.67;;;18.40;99.90;;;;;;4975766;28;95066;-39
2022/05/22 07:39:32;;;;;;;8.65;4.32;;;18.50;99.90;;;;;;4976722;28;94346;-36
2022/05/22 07:41:58;;;;;;;7.35;4.32;;;18.30;99.90;;;;;;4974589;28;95002;-36
2022/05/22 07:44:24;;;;;;;8.57;4.15;;;18.40;99.90;;;;;;4975392;28;93946;-39
2022/05/22 07:46:50;;;;;;;8.27;4.43;;;18.40;99.90;;;;;;4975483;28;95696;-34
2022/05/22 07:52:04;;;;;;;6.28;3.72;;;18.50;99.90;;;;;;4976031;28;92689;-34
2022/05/22 07:54:35;;;;;;;10.73;4.07;;;18.70;99.90;;;;;;4974482;28;94239;-35
2022/05/22 07:57:01;;;;;;;7.13;4.25;;;18.90;99.90;;;;;;4974757;28;94662;-38
2022/05/22 07:59:26;;;;;;;9.48;4.45;;;19.50;99.90;;;;;;4975696;28;94683;-35
2022/05/22 08:01:52;;;;;;;10.50;3.88;;;19.30;99.90;;;;;;4975777;28;94393;-36
2022/05/22 08:04:18;;;;;;;11.23;3.85;;;19.30;99.90;;;;;;4975322;28;92718;-35
2022/05/22 08:06:43;;;;;;;9.52;4.88;;;19.60;99.90;;;;;;4975521;28;94535;-35
2022/05/22 08:09:09;;;;;;;7.50;3.70;;;19.40;99.90;;;;;;4975334;28;98344;-36
2022/05/22 08:11:34;;;;;;;8.95;3.75;;;19.50;99.90;;;;;;4975253;28;94013;-40
2022/05/22 08:14:00;;;;;;;9.85;4.60;;;19.40;99.90;;;;;;4975521;28;93886;-38
2022/05/22 08:16:25;;;;;;;8.15;4.00;;;18.90;99.90;;;;;;4975034;28;94519;-35
2022/05/22 08:18:51;;;;;;;6.70;4.15;;;19.30;99.90;;;;;;4974435;28;94889;-34
2022/05/22 08:21:16;;;;;;;10.15;4.45;;;19.50;99.90;;;;;;4975732;28;92371;-35
2022/05/22 08:23:42;;;;;;;5.78;3.42;;;19.70;99.90;;;;;;4975052;28;92194;-36
2022/05/22 08:26:07;;;;;;;9.43;3.58;;;19.60;99.90;;;;;;4975366;28;94791;-35
2022/05/22 08:28:33;;;;;;;10.15;4.63;;;19.40;99.90;;;;;;4974545;28;95475;-38
2022/05/22 08:30:59;;;;;;;7.57;4.20;;;19.60;99.90;;;;;;4975278;28;93852;-34
2022/05/22 08:33:24;;;;;;;5.25;4.22;;;19.00;99.90;;;;;;4974949;28;93209;-36
2022/05/22 08:35:52;;;;;;;6.30;4.22;;;19.20;99.90;;;;;;4973549;28;96275;-35
2022/05/22 08:38:17;;;;;;;5.85;3.30;;;19.10;99.90;;;;;;4974488;28;95488;-38
2022/05/22 08:41:04;;;;;;;5.78;3.03;;;18.60;99.90;;;;;;4975368;28;94387;-35
2022/05/22 08:43:34;;;;;;;8.93;4.55;;;18.60;99.90;;;;;;4974841;28;92583;-38
2022/05/22 08:46:21;;;;;;;5.22;4.05;;;18.90;99.90;;;;;;4974186;28;94700;-34
2022/05/22 08:48:56;;;;;;;5.40;4.05;;;19.00;99.90;;;;;;4974280;28;94913;-34
2022/05/22 08:51:31;;;;;;;7.03;3.90;;;18.90;99.90;;;;;;4974950;28;94527;-37
2022/05/22 08:54:16;;;;;;;14.00;4.13;;;18.90;99.90;;;;;;4973520;28;92292;-37
2022/05/22 08:59:31;;;;;;;11.50;4.53;;;18.30;99.90;;;;;;4975146;28;94874;-34
2022/05/22 09:02:34;;;;;;;14.65;4.32;;;17.90;99.90;;;;;;4974234;28;94373;-37
2022/05/22 09:05:12;;;;;;;3.65;3.25;;;17.90;99.90;;;;;;4974669;28;93136;-36
2022/05/22 09:07:41;;;;;;;;;;;18.00;99.90;;;;;;4974371;28;93814;-36
2022/05/22 09:10:17;;;;;;;11.07;4.25;;;18.20;99.90;;;;;;4975981;28;93887;-35
2022/05/22 09:13:27;;;;;;;6.40;3.70;;;18.50;99.90;;;;;;4975126;28;94943;-38
2022/05/22 09:16:00;;;;;;;7.38;3.38;;;18.50;99.90;;;;;;4974216;28;94152;-39
2022/05/22 09:18:40;;;;;;;5.22;2.95;;;18.80;99.90;;;;;;4973938;28;94815;-37
2022/05/22 09:21:28;;;;;;;6.03;3.45;;;19.20;99.90;;;;;;4974951;28;94553;-34
2022/05/22 09:23:53;;;;;;;;;;;19.80;99.90;;;;;;4975191;28;94194;-36
2022/05/22 09:26:53;;;;;;;8.88;2.35;;;20.00;99.90;;;;;;4975315;28;93689;-37
2022/05/22 09:29:37;;;;;;;5.65;3.10;;;20.10;99.90;;;;;;4973582;28;95564;-36
2022/05/22 09:32:20;;;;;;;6.35;2.47;;;20.40;99.90;;;;;;4974715;28;95352;-34
2022/05/22 09:35:08;;;;;;;5.72;2.97;;;19.80;99.90;;;;;;4974569;28;93321;-34
2022/05/22 09:37:57;;;;;;;12.55;2.90;;;19.50;99.90;;;;;;4974282;28;94306;-38
2022/05/22 09:40:32;;;;;;;4.68;2.60;;;19.10;99.90;;;;;;4974116;28;94866;-38
2022/05/22 09:43:03;;;;;;;6.72;3.17;;;19.20;99.90;;;;;;4973938;28;94840;-37
2022/05/22 09:45:56;;;;;;;5.78;2.45;;;19.40;99.90;;;;;;4974658;28;92222;-39
2022/05/22 09:48:51;;;;;;;8.02;3.25;;;19.70;98.80;;;;;;4974753;28;94160;-37
2022/05/22 09:51:44;;;;;;;6.45;2.80;;;19.60;99.90;;;;;;4973133;28;94332;-37
2022/05/22 09:54:34;;;;;;;3.88;2.78;;;19.30;99.90;;;;;;4974557;28;94466;-37
2022/05/22 09:57:05;;;;;;;6.25;2.67;;;19.30;99.90;;;;;;4972898;28;94205;-35
2022/05/22 09:59:51;;;;;;;3.67;2.17;;;18.90;99.90;;;;;;4955507;28;92933;-36
2022/05/22 10:02:30;;;;;;;7.97;1.88;;;18.90;98.20;;;;;;4953889;28;93614;-36
2022/05/22 10:05:11;;;;;;;5.70;3.15;;;18.40;99.90;;;;;;4955916;28;95913;-36
2022/05/22 10:07:52;;;;;;;12.00;4.20;;;18.30;99.90;;;;;;4976137;28;94164;-34
2022/05/22 10:10:57;;;;;;;5.03;2.92;;;18.10;99.90;;;;;;4976822;28;94222;-37
2022/05/22 10:13:34;;;;;;;6.88;2.10;;;18.10;99.90;;;;;;4976261;28;95199;-36
2022/05/22 10:16:26;;;;;;;7.90;2.92;;;18.30;99.90;;;;;;4977390;28;95177;-33
2022/05/22 10:19:01;;;;;;;9.88;2.83;;;18.30;99.90;;;;;;4976128;28;94666;-39
2022/05/22 10:21:48;;;;;;;7.30;2.60;;;18.70;99.90;;;;;;4977573;28;94524;-35
2022/05/22 10:24:47;;;;;;;4.20;2.53;;;18.80;99.90;;;;;;4976449;28;95457;-37
2022/05/22 10:27:18;;;;;;;6.80;2.88;;;18.00;99.90;;;;;;4976896;28;95668;-36
2022/05/22 10:29:54;;;;;;;11.15;3.60;;;18.10;99.90;;;;;;4977084;28;93229;-34
2022/05/22 10:32:38;;;;;;;6.13;2.60;;;18.10;99.90;;;;;;4977586;28;93097;-34
2022/05/22 10:35:41;;;;;;;5.55;2.67;;;18.10;99.90;;;;;;4976148;28;94581;-37
2022/05/22 10:38:14;;;;;;;4.20;2.70;;;17.90;99.90;;;;;;4976385;28;94372;-35
2022/05/22 10:43:36;;;;;;;8.52;2.83;;;17.80;99.90;;;;;;4977421;28;92586;-35
2022/05/22 10:46:03;;;;;;;5.97;2.55;;;17.90;99.90;;;;;;4977005;28;94398;-36
2022/05/22 10:48:31;;;;;;;7.40;3.60;;;18.10;99.90;;;;;;4975266;28;95161;-35
2022/05/22 10:51:12;;;;;;;12.50;3.40;;;18.50;99.90;;;;;;4975833;28;94063;-36
2022/05/22 10:53:48;;;;;;;9.85;2.97;;;18.50;99.90;;;;;;4976314;28;93565;-36
2022/05/22 10:56:13;;;;;;;9.52;3.25;;;18.50;99.90;;;;;;4976872;28;93894;-35
2022/05/22 10:58:48;;;;;;;9.30;3.70;;;18.50;99.90;;;;;;4975900;28;94856;-34
2022/05/22 11:01:19;;;;;;;3.80;3.17;;;18.60;99.90;;;;;;4976726;28;94353;-34
2022/05/22 11:03:45;;;;;;;5.90;2.65;;;18.80;99.90;;;;;;4974758;28;92092;-35
2022/05/22 11:06:22;;;;;;;7.65;2.80;;;19.10;99.90;;;;;;4976524;28;95333;-35
2022/05/22 11:08:54;;;;;;;4.40;3.20;;;19.10;99.90;;;;;;4976689;28;94472;-37
2022/05/22 11:11:28;;;;;;;6.13;3.10;;;19.20;99.90;;;;;;4976615;28;93970;-36
2022/05/22 11:14:09;;;;;;;6.68;3.13;;;19.10;99.90;;;;;;4975430;28;93976;-34
2022/05/22 11:16:34;;;;;;;13.05;3.13;;;19.10;99.90;;;;;;4974730;28;95758;-37
2022/05/22 11:19:10;;;;;;;6.40;2.88;;;19.40;99.90;;;;;;4975306;28;95405;-35
2022/05/22 11:21:55;;;;;;;6.28;2.42;;;19.20;99.90;;;;;;4976468;28;94052;-38
2022/05/22 11:24:49;;;;;;;6.05;2.63;;;18.90;99.90;;;;;;4975919;28;93730;-34
2022/05/22 11:27:30;;;;;;;4.82;3.08;;;18.70;99.90;;;;;;4975201;28;94677;-38
2022/05/22 11:30:06;;;;;;;3.30;2.88;;;19.20;99.90;;;;;;4974568;28;94420;-38
2022/05/22 11:33:23;;;;;;;5.50;2.70;;;19.40;99.90;;;;;;4975587;28;93855;-34
2022/05/22 11:36:08;;;;;;;13.43;3.87;;;19.20;99.90;;;;;;4974363;28;93271;-33
2022/05/22 11:39:09;;;;;;;6.63;2.50;;;19.00;99.90;;;;;;4976279;28;93848;-35
2022/05/22 11:41:40;;;;;;;3.40;2.30;;;19.10;99.90;;;;;;4974465;28;94931;-39
2022/05/22 11:44:35;;;;;;;3.70;2.50;;;19.10;99.90;;;;;;4975202;28;94402;-35
2022/05/22 11:47:15;;;;;;;7.60;3.28;;;19.20;99.90;;;;;;4975780;28;94150;-35
2022/05/22 11:49:59;;;;;;;4.43;2.30;;;18.80;96.30;;;;;;4974909;28;94863;-35
2022/05/22 11:52:54;;;;;;;4.13;2.45;;;18.90;98.60;;;;;;4976237;28;95226;-33
2022/05/22 11:55:41;;;;;;;6.25;2.63;;;18.90;99.90;;;;;;4976055;28;94228;-39
2022/05/22 11:58:32;;;;;;;4.82;2.72;;;19.00;99.90;;;;;;4975194;28;92560;-36
2022/05/22 12:01:23;;;;;;;7.80;3.10;;;19.20;99.90;;;;;;4975410;28;94701;-38
2022/05/22 12:04:03;;;;;;;9.40;3.13;;;19.10;99.90;;;;;;4975978;28;94800;-34
2022/05/22 12:06:43;;;;;;;6.38;3.35;;;18.80;99.90;;;;;;4975586;28;93373;-36
2022/05/22 12:09:31;;;;;;;5.90;3.08;;;18.80;99.90;;;;;;4975602;28;93162;-38
2022/05/22 12:12:26;;;;;;;6.95;2.70;;;18.70;99.90;;;;;;4975297;28;95707;-35
2022/05/22 12:15:03;;;;;;;2.72;2.42;;;18.80;99.90;;;;;;4965230;28;95660;-36
2022/05/22 12:17:42;;;;;;;6.27;2.67;;;18.70;99.90;;;;;;4975303;28;94435;-36
2022/05/22 12:20:22;;;;;;;5.13;2.63;;;18.60;99.90;;;;;;4975870;28;94614;-35
2022/05/22 12:23:13;;;;;;;8.45;2.55;;;18.60;99.90;;;;;;4975073;28;93732;-35
2022/05/22 12:25:59;;;;;;;10.57;2.45;;;18.80;99.90;;;;;;4975074;28;95030;-36
2022/05/22 12:28:24;;;;;;;4.10;2.40;;;18.90;98.40;;;;;;4975281;28;94455;-34
2022/05/22 12:30:54;;;;;;;2.88;1.75;;;18.80;99.60;;;;;;4974024;28;93610;-39
2022/05/22 12:33:20;;;;;;;4.43;2.75;;;19.00;99.90;;;;;;4975286;28;94891;-41
2022/05/22 12:35:46;;;;;;;3.47;2.25;;;19.50;99.90;;;;;;4975747;28;95234;-36
2022/05/22 12:38:14;;;;;;;10.07;2.35;;;19.40;99.90;;;;;;4974678;28;94089;-37
2022/05/22 12:40:48;;;;;;;4.85;2.25;;;19.50;99.90;;;;;;4974368;28;92647;-34
2022/05/22 12:43:17;;;;;;;3.22;2.05;;;19.30;99.90;;;;;;4975200;28;94961;-39
2022/05/22 12:45:46;;;;;;;3.15;2.47;;;19.20;99.90;;;;;;4974046;28;94256;-39
2022/05/22 12:48:23;;;;;;;5.15;1.98;;;19.30;99.90;;;;;;5004718;22;94328;-34
2022/05/22 12:50:52;;;;;;;4.63;2.42;;;19.20;98.70;;;;;;4973950;28;94287;-36
2022/05/22 12:53:29;;;;;;;6.15;2.47;;;19.20;99.90;;;;;;4975708;28;94847;-34
2022/05/22 12:55:56;;;;;;;7.50;2.97;;;19.30;99.00;;;;;;4974049;28;95516;-36
2022/05/22 12:58:30;;;;;;;9.65;2.72;;;19.00;99.90;;;;;;4976898;28;92702;-36
2022/05/22 13:00:56;;;;;;;8.98;3.75;;;19.00;99.90;;;;;;4969395;28;94534;-38
2022/05/22 13:03:29;;;;;;;4.97;2.28;;;18.90;99.90;;;;;;4969665;28;95613;-37
2022/05/22 13:06:14;;;;;;;3.40;2.10;;;18.80;99.90;;;;;;4973793;28;95706;-34
2022/05/22 13:08:48;;;;;;;4.80;2.63;;;18.80;99.90;;;;;;4974853;28;93426;-35
2022/05/22 13:11:18;;;;;;;5.68;2.70;;;18.60;99.90;;;;;;4975118;28;93257;-38
2022/05/22 13:13:51;;;;;;;5.22;2.50;;;18.80;99.90;;;;;;4974212;28;95422;-36
2022/05/22 13:16:29;;;;;;;4.65;2.67;;;19.00;99.90;;;;;;4975310;28;94574;-37
2022/05/22 13:18:55;;;;;;;4.57;2.38;;;19.00;99.90;;;;;;4974648;28;93541;-37